Time;durP1;ratioP1;P1;durP2;ratioP2;P2;SDS_P1;SDS_P2;PMS_P1;PMS_P2;Temp;Humidity;BMP_temperature;BMP_pressure;BME280_temperature;BME280_humidity;BME280_pressure;Samples;Min_cycle;Max_cycle;Signal;HPM_P1;HPM_P2
2022/01/12 00:01:06;;;;;;;66.93;34.22;;;;;;;;;;5070607;28;20132;-73
2022/01/12 00:03:33;;;;;;;81.82;32.35;;;;;;;;;;5053505;28;20025;-73
2022/01/12 00:06:02;;;;;;;64.13;28.15;;;;;;;;;;5070395;28;20036;-73
2022/01/12 00:08:31;;;;;;;68.40;30.23;;;;;;;;;;5069310;28;20071;-73
2022/01/12 00:11:06;;;;;;;71.15;30.52;;;;;;;;;;5068822;28;20047;-73
2022/01/12 00:13:42;;;;;;;96.43;39.42;;;;;;;;;;5069925;28;20047;-73
2022/01/12 00:16:24;;;;;;;88.57;39.28;;;;;;;;;;5068851;28;20334;-73
2022/01/12 00:18:55;;;;;;;113.70;44.40;;;;;;;;;;5052123;28;20029;-73
2022/01/12 00:21:30;;;;;;;103.32;37.13;;;;;;;;;;5069161;28;20017;-73
2022/01/12 00:23:58;;;;;;;53.13;25.35;;;;;;;;;;5067587;28;20019;-73
2022/01/12 00:34:38;;;;;;;67.88;28.95;;;;;;;;;;5070267;28;20084;-73
2022/01/12 00:37:09;;;;;;;80.80;31.38;;;;;;;;;;5052364;28;20027;-73
2022/01/12 00:39:42;;;;;;;79.88;29.85;;;;;;;;;;5049612;28;20181;-72
2022/01/12 00:42:25;;;;;;;84.10;32.15;;;;;;;;;;5068917;28;20017;-72
2022/01/12 00:45:00;;;;;;;83.93;35.70;;;;;;;;;;5055808;28;20108;-72
2022/01/12 00:47:48;;;;;;;84.57;35.42;;;;;;;;;;5055943;28;20374;-72
2022/01/12 00:50:26;;;;;;;78.78;30.08;;;;;;;;;;5052029;28;20013;-72
2022/01/12 00:52:58;;;;;;;80.43;33.65;;;;;;;;;;5039516;28;20409;-72
2022/01/12 00:55:44;;;;;;;72.13;30.02;;;;;;;;;;5039080;28;20113;-72
2022/01/12 00:58:16;;;;;;;87.22;29.95;;;;;;;;;;5054836;28;20021;-72
2022/01/12 01:00:55;;;;;;;79.40;34.03;;;;;;;;;;5025541;28;20087;-72
2022/01/12 01:03:28;;;;;;;75.03;30.63;;;;;;;;;;5048604;28;20020;-72
2022/01/12 01:05:57;;;;;;;73.32;35.50;;;;;;;;;;5052670;28;20017;-72
2022/01/12 01:08:36;;;;;;;87.55;43.22;;;;;;;;;;5051652;28;20029;-72
2022/01/12 01:11:21;;;;;;;153.07;76.25;;;;;;;;;;5023325;28;20123;-72
2022/01/12 01:14:12;;;;;;;98.70;51.20;;;;;;;;;;5053617;28;20383;-72
2022/01/12 01:17:18;;;;;;;143.35;72.97;;;;;;;;;;5037172;28;20070;-73
2022/01/12 01:25:32;;;;;;;85.50;38.83;;;;;;;;;;5052725;28;20392;-72
2022/01/12 01:28:04;;;;;;;83.65;42.00;;;;;;;;;;5050249;28;20025;-72
2022/01/12 01:30:40;;;;;;;81.55;38.50;;;;;;;;;;5052414;28;20109;-72
2022/01/12 01:33:33;;;;;;;96.13;43.17;;;;;;;;;;5025118;28;20115;-72
2022/01/12 01:36:26;;;;;;;244.05;116.28;;;;;;;;;;5049839;28;20048;-73
2022/01/12 01:41:27;;;;;;;144.32;70.38;;;;;;;;;;5059151;22;20049;-73
2022/01/12 01:53:17;;;;;;;160.75;71.60;;;;;;;;;;5010962;28;20128;-74
2022/01/12 01:53:22;;;;;;;179.00;87.20;;;;;;;;;;5033637;28;20347;-74
2022/01/12 01:55:53;;;;;;;181.82;86.22;;;;;;;;;;5013565;28;20427;-73
2022/01/12 02:01:27;;;;;;;151.00;73.90;;;;;;;;;;5039375;22;20037;-75
2022/01/12 02:07:26;;;;;;;117.28;55.22;;;;;;;;;;5029744;23;20041;-73
2022/01/12 02:10:25;;;;;;;131.75;65.10;;;;;;;;;;5025781;28;20048;-73
2022/01/12 02:15:45;;;;;;;174.60;84.65;;;;;;;;;;5024819;28;20045;-73
2022/01/12 02:19:19;;;;;;;157.10;77.90;;;;;;;;;;4947791;28;20167;-73
2022/01/12 02:35:55;;;;;;;122.75;59.10;;;;;;;;;;5032901;28;20032;-73
2022/01/12 02:41:31;;;;;;;110.30;52.97;;;;;;;;;;5030091;28;20032;-72
2022/01/12 02:55:41;;;;;;;127.47;60.55;;;;;;;;;;5022839;28;20092;-73
2022/01/12 02:58:25;;;;;;;164.52;62.55;;;;;;;;;;5024334;28;20061;-73
2022/01/12 03:04:00;;;;;;;184.57;91.32;;;;;;;;;;5023185;28;20029;-73
2022/01/12 03:06:38;;;;;;;169.80;77.15;;;;;;;;;;5012897;28;20059;-73
2022/01/12 03:09:20;;;;;;;180.00;79.15;;;;;;;;;;5024544;28;20429;-72
2022/01/12 03:11:49;;;;;;;171.82;79.80;;;;;;;;;;5017192;28;20033;-74
2022/01/12 03:14:26;;;;;;;196.23;96.72;;;;;;;;;;5030420;28;20021;-74
2022/01/12 03:16:54;;;;;;;200.63;93.80;;;;;;;;;;5015052;28;20021;-73
2022/01/12 03:19:29;;;;;;;187.35;91.32;;;;;;;;;;5030773;28;20327;-74
2022/01/12 03:22:01;;;;;;;225.52;89.10;;;;;;;;;;5013962;28;20056;-73
2022/01/12 03:24:29;;;;;;;216.05;103.75;;;;;;;;;;5014010;28;20068;-73
2022/01/12 03:27:00;;;;;;;208.18;97.60;;;;;;;;;;5028448;28;20034;-73
2022/01/12 03:29:28;;;;;;;204.60;99.63;;;;;;;;;;5014360;28;20037;-73
2022/01/12 03:31:57;;;;;;;185.93;84.97;;;;;;;;;;5032333;28;20040;-74
2022/01/12 03:34:29;;;;;;;210.32;78.05;;;;;;;;;;5016675;28;20021;-74
2022/01/12 03:37:39;;;;;;;193.80;74.13;;;;;;;;;;5016473;28;20032;-73
2022/01/12 03:39:43;;;;;;;183.63;64.97;;;;;;;;;;5032968;28;20017;-73
2022/01/12 03:42:09;;;;;;;189.63;70.93;;;;;;;;;;5034165;28;20048;-73
2022/01/12 03:44:36;;;;;;;173.93;68.93;;;;;;;;;;5034114;28;20025;-74
2022/01/12 03:47:02;;;;;;;179.07;64.70;;;;;;;;;;5033893;28;20036;-74
2022/01/12 03:49:30;;;;;;;176.80;66.60;;;;;;;;;;5034972;28;20097;-74
2022/01/12 03:51:57;;;;;;;210.02;78.70;;;;;;;;;;5018554;28;20124;-74
2022/01/12 03:54:23;;;;;;;364.58;94.53;;;;;;;;;;5033902;28;20025;-72
2022/01/12 03:56:51;;;;;;;308.38;83.40;;;;;;;;;;5017641;28;20033;-73
2022/01/12 03:59:17;;;;;;;239.80;74.03;;;;;;;;;;5016997;28;20036;-72
2022/01/12 04:01:44;;;;;;;138.10;42.35;;;;;;;;;;5017205;28;20064;-73
2022/01/12 04:04:17;;;;;;;100.07;38.50;;;;;;;;;;5015553;28;20112;-73
2022/01/12 04:09:28;;;;;;;102.68;44.80;;;;;;;;;;5033295;28;20045;-73
2022/01/12 04:11:54;;;;;;;123.30;55.58;;;;;;;;;;5015706;28;20042;-73
2022/01/12 04:14:21;;;;;;;138.68;56.65;;;;;;;;;;5032058;28;20029;-72
2022/01/12 04:16:47;;;;;;;174.25;74.18;;;;;;;;;;5033568;28;20049;-72
2022/01/12 04:19:13;;;;;;;181.05;59.35;;;;;;;;;;5017168;28;20021;-73
2022/01/12 04:21:47;;;;;;;210.15;94.20;;;;;;;;;;5037120;28;20128;-72
2022/01/12 04:24:13;;;;;;;181.85;68.45;;;;;;;;;;5036997;28;20090;-73
2022/01/12 04:26:40;;;;;;;179.23;70.40;;;;;;;;;;5036579;28;20291;-73
2022/01/12 04:29:07;;;;;;;191.02;76.38;;;;;;;;;;5035729;28;20017;-72
2022/01/12 04:31:40;;;;;;;200.57;82.88;;;;;;;;;;5036028;28;20029;-72
2022/01/12 04:34:06;;;;;;;212.27;81.50;;;;;;;;;;5036770;28;20105;-72
2022/01/12 04:36:33;;;;;;;186.13;73.10;;;;;;;;;;5020060;28;20484;-72
2022/01/12 04:38:59;;;;;;;158.10;77.72;;;;;;;;;;5035550;28;20025;-72
2022/01/12 04:41:26;;;;;;;207.00;92.07;;;;;;;;;;5019017;28;20049;-72
2022/01/12 04:43:52;;;;;;;213.60;95.70;;;;;;;;;;5019372;28;20029;-72
2022/01/12 04:46:27;;;;;;;193.90;103.50;;;;;;;;;;5036349;28;20056;-72
2022/01/12 04:49:10;;;;;;;241.68;103.57;;;;;;;;;;5034482;28;20051;-72
2022/01/12 04:51:36;;;;;;;206.45;94.03;;;;;;;;;;5035878;28;20029;-72
2022/01/12 04:54:03;;;;;;;187.40;87.35;;;;;;;;;;5018765;28;20113;-72
2022/01/12 04:56:29;;;;;;;177.68;83.57;;;;;;;;;;5036371;28;20157;-73
2022/01/12 04:58:55;;;;;;;144.95;67.70;;;;;;;;;;5035150;28;20028;-72
2022/01/12 05:01:24;;;;;;;151.98;72.78;;;;;;;;;;5033445;28;20086;-73
2022/01/12 05:06:57;;;;;;;141.05;68.55;;;;;;;;;;5034357;28;20017;-72
2022/01/12 05:09:47;;;;;;;162.85;76.78;;;;;;;;;;5018033;28;20026;-72
2022/01/12 05:15:11;;;;;;;138.10;63.92;;;;;;;;;;5036578;28;19947;-72
2022/01/12 05:17:37;;;;;;;121.97;62.35;;;;;;;;;;5018824;28;20083;-72
2022/01/12 05:20:04;;;;;;;128.68;59.55;;;;;;;;;;5035151;28;20029;-72
2022/01/12 05:22:30;;;;;;;118.10;60.45;;;;;;;;;;5035161;28;20441;-72
2022/01/12 05:24:56;;;;;;;129.30;60.42;;;;;;;;;;5036514;28;20064;-73
2022/01/12 05:27:26;;;;;;;134.68;62.70;;;;;;;;;;5034767;28;20032;-73
2022/01/12 05:29:52;;;;;;;90.18;44.35;;;;;;;;;;5034512;28;20033;-73
2022/01/12 05:32:19;;;;;;;157.98;71.07;;;;;;;;;;5034357;28;20430;-73
2022/01/12 05:35:30;;;;;;;98.82;43.75;;;;;;;;;;5037091;28;20024;-74
2022/01/12 05:38:52;;;;;;;100.97;41.92;;;;;;;;;;5036231;28;20028;-75
2022/01/12 05:41:35;;;;;;;184.60;85.20;;;;;;;;;;4999135;28;20034;-75
2022/01/12 05:44:06;;;;;;;171.80;82.20;;;;;;;;;;5034999;28;20415;-73
2022/01/12 05:46:32;;;;;;;147.93;70.13;;;;;;;;;;5035554;28;20053;-74
2022/01/12 05:51:44;;;;;;;158.40;75.85;;;;;;;;;;5034139;28;20037;-71
2022/01/12 05:54:13;;;;;;;159.80;67.00;;;;;;;;;;5035451;28;20021;-73
2022/01/12 05:56:45;;;;;;;200.68;98.32;;;;;;;;;;5018653;28;20386;-72
2022/01/12 05:59:11;;;;;;;201.60;100.38;;;;;;;;;;5034845;28;20108;-72
2022/01/12 06:01:38;;;;;;;173.98;90.03;;;;;;;;;;5033260;28;20052;-72
2022/01/12 06:04:09;;;;;;;73.95;36.58;;;;;;;;;;5029625;28;20116;-73
2022/01/12 06:06:45;;;;;;;70.30;31.23;;;;;;;;;;5032785;28;20017;-73
2022/01/12 06:09:11;;;;;;;59.38;21.85;;;;;;;;;;5029936;28;20021;-73
2022/01/12 06:11:37;;;;;;;54.75;23.02;;;;;;;;;;5029779;28;20033;-74
2022/01/12 06:14:03;;;;;;;43.55;19.83;;;;;;;;;;5032029;28;20494;-73
2022/01/12 06:16:30;;;;;;;44.83;21.38;;;;;;;;;;5036002;28;20022;-72
2022/01/12 06:18:59;;;;;;;50.42;21.00;;;;;;;;;;5015013;28;20026;-71
2022/01/12 06:21:28;;;;;;;53.05;17.67;;;;;;;;;;5018292;28;20032;-73
2022/01/12 06:27:30;;;;;;;51.17;15.02;;;;;;;;;;5035148;28;20319;-74
2022/01/12 06:32:34;;;;;;;29.98;13.50;;;;;;;;;;5033988;28;20128;-74
2022/01/12 06:35:01;;;;;;;31.90;15.60;;;;;;;;;;5034512;28;20037;-74
2022/01/12 06:37:27;;;;;;;35.13;13.52;;;;;;;;;;5034891;28;20025;-73
2022/01/12 06:39:53;;;;;;;15.35;8.43;;;;;;;;;;5034504;28;20411;-74
2022/01/12 06:42:21;;;;;;;15.60;6.00;;;;;;;;;;5017055;28;20033;-74
2022/01/12 06:44:48;;;;;;;13.38;7.75;;;;;;;;;;5034791;28;20022;-74
2022/01/12 06:47:14;;;;;;;19.90;7.78;;;;;;;;;;5033878;28;20323;-73
2022/01/12 06:49:40;;;;;;;20.35;8.23;;;;;;;;;;5035628;28;20029;-74
2022/01/12 06:52:06;;;;;;;13.25;5.32;;;;;;;;;;5017329;28;20386;-74
2022/01/12 06:54:33;;;;;;;19.33;7.63;;;;;;;;;;5034210;28;20021;-73
2022/01/12 06:57:03;;;;;;;14.15;4.75;;;;;;;;;;5015755;28;20070;-76
2022/01/12 06:59:32;;;;;;;14.50;5.15;;;;;;;;;;5017450;28;20315;-73
2022/01/12 07:01:59;;;;;;;17.77;5.80;;;;;;;;;;5033173;28;20075;-73
2022/01/12 07:04:26;;;;;;;32.53;7.90;;;;;;;;;;5017505;28;20092;-72
2022/01/12 07:06:52;;;;;;;12.02;5.28;;;;;;;;;;5033610;28;20025;-73
2022/01/12 07:09:19;;;;;;;15.05;7.15;;;;;;;;;;5033802;28;20026;-73
2022/01/12 07:11:47;;;;;;;19.77;7.90;;;;;;;;;;5033714;28;20037;-72
2022/01/12 07:14:15;;;;;;;16.13;6.57;;;;;;;;;;5017527;28;20407;-74
2022/01/12 07:16:45;;;;;;;17.17;5.45;;;;;;;;;;5015180;28;20032;-74
2022/01/12 07:19:14;;;;;;;17.98;7.10;;;;;;;;;;5018142;28;20013;-75
2022/01/12 07:21:41;;;;;;;26.30;7.03;;;;;;;;;;5032483;28;20021;-72
2022/01/12 07:24:07;;;;;;;30.38;10.80;;;;;;;;;;5034355;28;20025;-72
2022/01/12 07:26:34;;;;;;;19.50;8.52;;;;;;;;;;5034715;28;20017;-72
2022/01/12 07:29:00;;;;;;;21.10;9.43;;;;;;;;;;5035342;28;20035;-73
2022/01/12 07:31:28;;;;;;;20.20;8.93;;;;;;;;;;5033751;28;20035;-74
2022/01/12 07:33:55;;;;;;;20.45;8.63;;;;;;;;;;5035041;28;20022;-74
2022/01/12 07:36:24;;;;;;;28.90;9.27;;;;;;;;;;5034557;28;20018;-72
2022/01/12 07:38:55;;;;;;;35.80;10.80;;;;;;;;;;5034101;28;20028;-73
2022/01/12 07:41:22;;;;;;;25.77;11.02;;;;;;;;;;5034147;28;20079;-72
2022/01/12 07:43:48;;;;;;;29.48;11.05;;;;;;;;;;5017829;28;20104;-73
2022/01/12 07:46:14;;;;;;;15.95;8.45;;;;;;;;;;5017722;28;20025;-73
2022/01/12 07:48:40;;;;;;;18.13;9.35;;;;;;;;;;5034231;28;20419;-73
2022/01/12 07:51:08;;;;;;;15.43;9.02;;;;;;;;;;5017668;28;20036;-73
2022/01/12 07:53:34;;;;;;;24.48;9.68;;;;;;;;;;5034919;28;20017;-73
2022/01/12 07:56:01;;;;;;;18.65;9.73;;;;;;;;;;5020262;28;20116;-73
2022/01/12 07:58:27;;;;;;;18.48;8.75;;;;;;;;;;5037464;28;20037;-72
2022/01/12 08:00:54;;;;;;;22.75;8.20;;;;;;;;;;5022471;23;20462;-73
2022/01/12 08:03:20;;;;;;;25.83;9.80;;;;;;;;;;5020572;28;20024;-73
2022/01/12 08:05:47;;;;;;;19.52;9.48;;;;;;;;;;5037151;28;20022;-72
2022/01/12 08:08:15;;;;;;;26.98;9.35;;;;;;;;;;5036413;28;20037;-73
2022/01/12 08:10:42;;;;;;;15.45;6.10;;;;;;;;;;5036834;28;20048;-73
2022/01/12 08:13:10;;;;;;;15.48;8.25;;;;;;;;;;5037478;28;20434;-72
2022/01/12 08:15:37;;;;;;;16.95;8.95;;;;;;;;;;5005868;28;20411;-72
2022/01/12 08:18:03;;;;;;;17.83;8.55;;;;;;;;;;5039309;28;20061;-72
2022/01/12 08:20:30;;;;;;;56.35;12.45;;;;;;;;;;5038994;28;20262;-72
2022/01/12 08:22:57;;;;;;;29.52;9.90;;;;;;;;;;5038205;28;20065;-73
2022/01/12 08:25:23;;;;;;;21.33;8.45;;;;;;;;;;5039249;28;20071;-73
2022/01/12 08:27:51;;;;;;;20.67;8.50;;;;;;;;;;5021325;28;20084;-73
2022/01/12 08:30:18;;;;;;;11.65;6.35;;;;;;;;;;5037601;28;20041;-72
2022/01/12 08:32:45;;;;;;;17.25;6.25;;;;;;;;;;5038855;28;20124;-72
2022/01/12 08:35:11;;;;;;;14.68;7.15;;;;;;;;;;5039063;28;20438;-72
2022/01/12 08:37:37;;;;;;;14.10;6.85;;;;;;;;;;5037493;28;20025;-73
2022/01/12 08:40:04;;;;;;;17.23;7.28;;;;;;;;;;5039067;28;20017;-72
2022/01/12 08:42:31;;;;;;;18.13;7.72;;;;;;;;;;5039561;28;20032;-72
2022/01/12 08:44:59;;;;;;;19.75;8.32;;;;;;;;;;5021859;28;20040;-73
2022/01/12 08:47:26;;;;;;;36.17;13.55;;;;;;;;;;5036341;28;20108;-73
2022/01/12 08:49:52;;;;;;;23.27;12.35;;;;;;;;;;5035863;28;20018;-74
2022/01/12 08:52:18;;;;;;;23.63;11.73;;;;;;;;;;5036608;28;20326;-73
2022/01/12 08:54:44;;;;;;;25.92;11.13;;;;;;;;;;5037750;28;20171;-73
2022/01/12 08:57:10;;;;;;;23.70;11.88;;;;;;;;;;5038097;28;20030;-72
2022/01/12 08:59:36;;;;;;;33.03;12.45;;;;;;;;;;5039563;28;20028;-72
2022/01/12 09:02:03;;;;;;;24.73;10.75;;;;;;;;;;5041202;28;20422;-73
2022/01/12 09:04:29;;;;;;;42.25;14.20;;;;;;;;;;5058747;28;20423;-73
2022/01/12 09:06:57;;;;;;;23.60;10.13;;;;;;;;;;5041675;28;20084;-73
2022/01/12 09:09:24;;;;;;;22.70;11.20;;;;;;;;;;5024628;28;20430;-73
2022/01/12 09:11:51;;;;;;;27.33;9.25;;;;;;;;;;5024814;28;20059;-73
2022/01/12 09:14:18;;;;;;;28.83;10.25;;;;;;;;;;5041459;28;20106;-73
2022/01/12 09:16:44;;;;;;;31.77;10.65;;;;;;;;;;5024624;28;20044;-73
2022/01/12 09:19:10;;;;;;;19.67;8.98;;;;;;;;;;5040511;28;20013;-73
2022/01/12 09:21:36;;;;;;;99.72;16.80;;;;;;;;;;5024646;28;20020;-73
2022/01/12 09:24:02;;;;;;;36.08;11.65;;;;;;;;;;5058427;28;20049;-73
2022/01/12 09:26:28;;;;;;;30.90;10.63;;;;;;;;;;5041369;28;20422;-73
2022/01/12 09:28:54;;;;;;;19.48;8.63;;;;;;;;;;5058603;28;20013;-73
2022/01/12 09:31:20;;;;;;;21.63;7.75;;;;;;;;;;5040802;28;20268;-73
2022/01/12 09:33:49;;;;;;;26.50;7.30;;;;;;;;;;5040878;28;20025;-73
2022/01/12 09:36:15;;;;;;;17.38;7.28;;;;;;;;;;5040539;28;20028;-73
2022/01/12 09:38:43;;;;;;;21.40;9.15;;;;;;;;;;5040845;28;20111;-73
2022/01/12 09:41:09;;;;;;;23.88;9.40;;;;;;;;;;5057700;28;20025;-73
2022/01/12 09:43:36;;;;;;;15.80;7.90;;;;;;;;;;5040640;28;20017;-73
2022/01/12 09:46:03;;;;;;;21.92;8.30;;;;;;;;;;5039257;28;20357;-73
2022/01/12 09:48:33;;;;;;;21.35;7.20;;;;;;;;;;5057962;28;20024;-74
2022/01/12 09:51:03;;;;;;;23.15;6.13;;;;;;;;;;5040515;28;20025;-73
2022/01/12 09:53:30;;;;;;;18.90;6.32;;;;;;;;;;5024261;28;20427;-73
2022/01/12 09:55:56;;;;;;;16.58;6.35;;;;;;;;;;5058489;28;20498;-73
2022/01/12 09:58:22;;;;;;;15.10;6.28;;;;;;;;;;5040678;28;20033;-73
2022/01/12 10:00:58;;;;;;;12.02;7.18;;;;;;;;;;5040478;28;20048;-73
2022/01/12 10:03:25;;;;;;;17.27;8.13;;;;;;;;;;5058109;28;20017;-73
2022/01/12 10:05:51;;;;;;;16.55;8.07;;;;;;;;;;5040143;28;20101;-73
2022/01/12 10:08:18;;;;;;;15.95;7.45;;;;;;;;;;5040146;28;20044;-73
2022/01/12 10:11:02;;;;;;;15.05;6.88;;;;;;;;;;5040093;28;20082;-73
2022/01/12 10:13:28;;;;;;;22.67;10.80;;;;;;;;;;5057489;28;20039;-73
2022/01/12 10:15:54;;;;;;;22.58;9.13;;;;;;;;;;5057238;28;20334;-73
2022/01/12 10:18:22;;;;;;;19.45;8.40;;;;;;;;;;5057472;28;20013;-73
2022/01/12 10:20:49;;;;;;;22.52;8.43;;;;;;;;;;5040166;28;20021;-73
2022/01/12 10:23:15;;;;;;;40.60;12.60;;;;;;;;;;5057623;28;20028;-73
2022/01/12 10:25:46;;;;;;;23.70;9.65;;;;;;;;;;5023273;28;20045;-73
2022/01/12 10:28:16;;;;;;;25.02;11.85;;;;;;;;;;5039312;28;20023;-73
2022/01/12 10:30:55;;;;;;;21.73;11.02;;;;;;;;;;5057611;28;20035;-73
2022/01/12 10:33:23;;;;;;;30.50;14.60;;;;;;;;;;5023081;28;20039;-73
2022/01/12 10:35:53;;;;;;;28.17;13.50;;;;;;;;;;5039841;28;20501;-73
2022/01/12 10:38:21;;;;;;;36.63;14.63;;;;;;;;;;5057494;28;20098;-73
2022/01/12 10:40:52;;;;;;;28.38;13.07;;;;;;;;;;5039879;28;20067;-73
2022/01/12 10:43:37;;;;;;;31.85;14.13;;;;;;;;;;5039155;28;20021;-73
2022/01/12 10:46:07;;;;;;;28.50;14.65;;;;;;;;;;5039610;28;20024;-73
2022/01/12 10:48:43;;;;;;;28.58;13.43;;;;;;;;;;5039348;28;20013;-73
2022/01/12 10:51:09;;;;;;;32.63;14.00;;;;;;;;;;5039464;28;20039;-73
2022/01/12 10:53:36;;;;;;;37.60;16.00;;;;;;;;;;5039471;28;20070;-71
2022/01/12 10:56:05;;;;;;;32.40;16.25;;;;;;;;;;5039526;28;20059;-71
2022/01/12 10:58:31;;;;;;;40.35;18.50;;;;;;;;;;5056854;28;20080;-71
2022/01/12 11:00:58;;;;;;;38.30;20.75;;;;;;;;;;5039637;28;20033;-71
2022/01/12 11:03:24;;;;;;;48.40;24.13;;;;;;;;;;5039359;28;20027;-73
2022/01/12 11:05:53;;;;;;;71.68;28.48;;;;;;;;;;5039013;28;20062;-73
2022/01/12 11:08:20;;;;;;;68.63;32.28;;;;;;;;;;5056600;28;20017;-73
2022/01/12 11:10:46;;;;;;;79.18;36.83;;;;;;;;;;5039070;28;20021;-73
2022/01/12 11:13:12;;;;;;;121.38;51.10;;;;;;;;;;5022650;28;20055;-73
2022/01/12 11:15:38;;;;;;;127.78;57.80;;;;;;;;;;5039369;28;20024;-73
2022/01/12 11:18:05;;;;;;;312.60;118.68;;;;;;;;;;5056886;28;20021;-73
2022/01/12 11:20:32;;;;;;;248.93;103.40;;;;;;;;;;5039192;28;20020;-73
2022/01/12 11:23:00;;;;;;;219.52;93.78;;;;;;;;;;5039274;28;20032;-73
2022/01/12 11:25:45;;;;;;;272.38;111.38;;;;;;;;;;5039073;28;20323;-74
2022/01/12 11:28:14;;;;;;;367.77;136.30;;;;;;;;;;5056654;28;20021;-73
2022/01/12 11:30:50;;;;;;;209.63;95.70;;;;;;;;;;5038711;28;20071;-74
2022/01/12 11:33:17;;;;;;;142.80;68.22;;;;;;;;;;5038704;28;20094;-73
2022/01/12 11:35:48;;;;;;;121.07;54.20;;;;;;;;;;5056166;28;20021;-73
2022/01/12 11:38:14;;;;;;;;;;;;;;;;;;5022826;28;20484;-73
2022/01/12 11:40:41;;;;;;;106.90;50.22;;;;;;;;;;5054504;28;19905;-73
2022/01/12 11:43:27;;;;;;;119.90;55.10;;;;;;;;;;5055162;28;20029;-73
2022/01/12 11:46:09;;;;;;;119.03;58.47;;;;;;;;;;5037269;28;20192;-73
2022/01/12 11:48:47;;;;;;;119.22;58.25;;;;;;;;;;5037103;28;20552;-73
2022/01/12 11:51:15;;;;;;;152.80;64.65;;;;;;;;;;5037099;28;20110;-73
2022/01/12 11:53:45;;;;;;;164.90;56.83;;;;;;;;;;5054939;28;20155;-73
2022/01/12 11:56:12;;;;;;;148.60;59.75;;;;;;;;;;5036905;28;20044;-73
2022/01/12 11:58:58;;;;;;;145.55;65.80;;;;;;;;;;5054194;28;20067;-73
2022/01/12 12:01:35;;;;;;;127.05;60.67;;;;;;;;;;5036991;28;20037;-73
2022/01/12 12:04:03;;;;;;;133.30;71.72;;;;;;;;;;5037765;28;20026;-73
2022/01/12 12:06:29;;;;;;;153.45;77.25;;;;;;;;;;5038532;28;20418;-73
2022/01/12 12:08:58;;;;;;;176.68;94.43;;;;;;;;;;5022015;28;20074;-73
2022/01/12 12:11:25;;;;;;;178.93;98.05;;;;;;;;;;5056064;28;20032;-73
2022/01/12 12:13:51;;;;;;;175.43;92.57;;;;;;;;;;5055889;28;20017;-73
2022/01/12 12:16:18;;;;;;;227.10;114.35;;;;;;;;;;5038709;28;20017;-73
2022/01/12 12:18:44;;;;;;;229.40;123.63;;;;;;;;;;5038249;28;20024;-73
2022/01/12 12:21:10;;;;;;;265.25;138.60;;;;;;;;;;5022158;28;20049;-73
2022/01/12 12:23:36;;;;;;;288.92;149.23;;;;;;;;;;5056079;28;20446;-73
2022/01/12 12:26:07;;;;;;;220.10;102.05;;;;;;;;;;5038909;28;20104;-73
2022/01/12 12:28:34;;;;;;;262.35;131.00;;;;;;;;;;5055728;28;20361;-73
2022/01/12 12:31:00;;;;;;;277.58;141.65;;;;;;;;;;5038734;28;20443;-73
2022/01/12 12:33:26;;;;;;;273.50;141.05;;;;;;;;;;5038559;28;20033;-73
2022/01/12 12:35:51;;;;;;;285.70;146.77;;;;;;;;;;5021749;28;20057;-73
2022/01/12 12:38:21;;;;;;;312.80;157.85;;;;;;;;;;5038197;28;20020;-73
2022/01/12 12:40:53;;;;;;;297.10;153.02;;;;;;;;;;5041894;28;20115;-73
2022/01/12 12:43:24;;;;;;;250.50;128.70;;;;;;;;;;5041518;28;20025;-73
2022/01/12 12:45:52;;;;;;;313.67;146.45;;;;;;;;;;5025633;28;20041;-74
2022/01/12 12:48:19;;;;;;;299.98;143.05;;;;;;;;;;5025537;28;20021;-73
2022/01/12 12:50:46;;;;;;;312.98;140.80;;;;;;;;;;5041977;28;20017;-73
2022/01/12 12:53:12;;;;;;;330.75;153.15;;;;;;;;;;5059120;28;20037;-73
2022/01/12 12:55:40;;;;;;;318.65;153.13;;;;;;;;;;5025356;28;20535;-73
2022/01/12 12:58:06;;;;;;;308.98;145.75;;;;;;;;;;5041437;28;20024;-73
2022/01/12 13:00:33;;;;;;;278.50;132.90;;;;;;;;;;5059052;28;20040;-73
2022/01/12 13:03:00;;;;;;;235.52;116.70;;;;;;;;;;5059417;28;20059;-73
2022/01/12 13:05:29;;;;;;;256.92;125.35;;;;;;;;;;5041485;28;20021;-73
2022/01/12 13:07:55;;;;;;;239.05;123.85;;;;;;;;;;5025216;28;20021;-73
2022/01/12 13:10:22;;;;;;;228.25;110.85;;;;;;;;;;5040892;28;20017;-73
2022/01/12 13:12:49;;;;;;;223.27;112.95;;;;;;;;;;5058620;28;20024;-73
2022/01/12 13:15:18;;;;;;;232.35;101.93;;;;;;;;;;5041348;28;20021;-73
2022/01/12 13:17:44;;;;;;;228.98;99.75;;;;;;;;;;5041603;28;20023;-73
2022/01/12 13:22:49;;;;;;;189.25;76.53;;;;;;;;;;5041467;28;20017;-73
2022/01/12 13:25:16;;;;;;;149.70;66.43;;;;;;;;;;5041033;28;20048;-73
2022/01/12 13:27:43;;;;;;;126.70;55.25;;;;;;;;;;5041407;28;20032;-73
2022/01/12 13:30:10;;;;;;;122.10;56.05;;;;;;;;;;5040830;28;20021;-73
2022/01/12 13:32:37;;;;;;;129.18;58.05;;;;;;;;;;5041312;28;20037;-73
2022/01/12 13:35:08;;;;;;;132.98;63.30;;;;;;;;;;5040911;28;20024;-73
2022/01/12 13:37:35;;;;;;;158.05;72.00;;;;;;;;;;5040347;28;20024;-73
2022/01/12 13:40:09;;;;;;;148.23;74.80;;;;;;;;;;5058264;28;20074;-74
2022/01/12 13:42:54;;;;;;;173.88;94.90;;;;;;;;;;5040547;28;20021;-73
2022/01/12 13:45:35;;;;;;;175.98;88.13;;;;;;;;;;5024516;28;20119;-73
2022/01/12 13:48:11;;;;;;;;;;;;;;;;;;5024835;28;20378;-73
2022/01/12 13:50:37;;;;;;;144.95;69.38;;;;;;;;;;5073216;28;19906;-73
2022/01/12 13:53:04;;;;;;;150.40;72.00;;;;;;;;;;5040737;28;20032;-73
2022/01/12 13:55:31;;;;;;;143.68;66.22;;;;;;;;;;5040572;28;20021;-73
2022/01/12 13:57:58;;;;;;;144.60;66.88;;;;;;;;;;5058549;28;20025;-73
2022/01/12 14:00:24;;;;;;;160.35;69.65;;;;;;;;;;5040564;28;20121;-73
2022/01/12 14:02:50;;;;;;;135.40;66.43;;;;;;;;;;5040266;28;20021;-73
2022/01/12 14:05:19;;;;;;;155.35;69.38;;;;;;;;;;5040786;28;20021;-73
2022/01/12 14:08:00;;;;;;;149.70;68.40;;;;;;;;;;5024110;28;20028;-74
2022/01/12 14:10:27;;;;;;;129.23;66.70;;;;;;;;;;5040030;28;20021;-73
2022/01/12 14:12:56;;;;;;;131.05;63.50;;;;;;;;;;5023899;28;20471;-73
2022/01/12 14:15:26;;;;;;;133.32;70.70;;;;;;;;;;5040261;28;20017;-73
2022/01/12 14:17:52;;;;;;;177.73;80.88;;;;;;;;;;5057499;28;20028;-73
2022/01/12 14:20:23;;;;;;;226.88;103.85;;;;;;;;;;5057859;28;20112;-73
2022/01/12 14:22:56;;;;;;;252.45;111.90;;;;;;;;;;5040051;28;20017;-73
2022/01/12 14:25:34;;;;;;;244.20;112.97;;;;;;;;;;5039933;28;20426;-73
2022/01/12 14:28:00;;;;;;;242.27;111.95;;;;;;;;;;5023799;28;20064;-73
2022/01/12 14:30:26;;;;;;;223.32;106.07;;;;;;;;;;5057877;28;20017;-73
2022/01/12 14:32:52;;;;;;;241.70;109.82;;;;;;;;;;5023325;28;20037;-73
2022/01/12 14:35:21;;;;;;;302.95;139.45;;;;;;;;;;5023543;28;20369;-73
2022/01/12 14:37:48;;;;;;;256.35;124.03;;;;;;;;;;5039458;28;20020;-73
2022/01/12 14:40:15;;;;;;;294.20;145.88;;;;;;;;;;5023412;28;20083;-74
2022/01/12 14:42:42;;;;;;;321.83;162.98;;;;;;;;;;5057001;28;20021;-73
2022/01/12 14:45:09;;;;;;;263.05;133.00;;;;;;;;;;5056857;28;20051;-73
2022/01/12 14:47:35;;;;;;;182.40;95.32;;;;;;;;;;5023252;28;20428;-73
2022/01/12 14:50:03;;;;;;;288.30;142.80;;;;;;;;;;5023428;28;20025;-73
2022/01/12 14:52:30;;;;;;;211.70;105.00;;;;;;;;;;5057077;28;20044;-73
2022/01/12 14:54:57;;;;;;;268.83;132.85;;;;;;;;;;5039051;28;20021;-73
2022/01/12 14:57:23;;;;;;;151.73;69.38;;;;;;;;;;5022900;28;20485;-74
2022/01/12 14:59:57;;;;;;;129.77;63.13;;;;;;;;;;5020687;28;20021;-74
2022/01/12 15:03:04;;;;;;;93.95;46.42;;;;;;;;;;5029959;23;20060;-75
2022/01/12 15:05:44;;;;;;;145.25;68.07;;;;;;;;;;5040637;28;20025;-73
2022/01/12 15:08:12;;;;;;;153.90;73.60;;;;;;;;;;5039516;28;20323;-73
2022/01/12 15:10:39;;;;;;;156.93;74.22;;;;;;;;;;5039726;28;20062;-73
2022/01/12 15:15:42;;;;;;;225.88;112.75;;;;;;;;;;5039583;28;20017;-73
2022/01/12 15:18:08;;;;;;;258.95;126.57;;;;;;;;;;5039230;28;20473;-73
2022/01/12 15:20:35;;;;;;;222.35;108.40;;;;;;;;;;5039028;28;20021;-73
2022/01/12 15:23:02;;;;;;;194.35;97.05;;;;;;;;;;5056601;28;20021;-73
2022/01/12 15:25:28;;;;;;;221.35;106.95;;;;;;;;;;5057222;28;20016;-74
2022/01/12 15:27:55;;;;;;;187.65;94.05;;;;;;;;;;5022613;28;20416;-74
2022/01/12 15:30:22;;;;;;;222.52;103.70;;;;;;;;;;5022819;28;20111;-74
2022/01/12 15:32:49;;;;;;;221.57;111.07;;;;;;;;;;5022623;28;20032;-74
2022/01/12 15:35:19;;;;;;;235.55;115.55;;;;;;;;;;5022423;28;20017;-74
2022/01/12 15:37:46;;;;;;;251.80;135.95;;;;;;;;;;5021800;28;20029;-74
2022/01/12 15:40:12;;;;;;;295.45;156.90;;;;;;;;;;5039121;28;20033;-74
2022/01/12 15:42:42;;;;;;;307.52;163.68;;;;;;;;;;5039492;28;20036;-74
2022/01/12 15:45:09;;;;;;;302.83;162.43;;;;;;;;;;5022950;28;20074;-74
2022/01/12 15:47:35;;;;;;;342.63;182.90;;;;;;;;;;5039330;28;20315;-74
2022/01/12 15:50:04;;;;;;;328.90;171.35;;;;;;;;;;5057160;28;20021;-72
2022/01/12 15:52:30;;;;;;;317.73;165.70;;;;;;;;;;5022605;28;20044;-71
2022/01/12 15:54:57;;;;;;;343.70;170.43;;;;;;;;;;5038578;28;20067;-71